• Join FlightAware (Why Join?)
  • Login
  • US Flag 
12:25PM EST


 

Airport Tracker/Info


-or-


 

Live Flight TrackerFlight Track Log ✈ JZA8745 ✈ 08-May-2013 ✈ CZBF - CYUL

Flight Track Log - Related Links

Times and Time Zones

All times are in EDT time to prevent confusion due to time zone crossing. See the JZA8745 flight status page for this flight to view local times or setup timezone preferences in your user account.

Time Position Orientation Groundspeed Altitude Reporting Facility
EDT Latitude Longitude Course Direction KTS MPH feet Rate Location/Type
02:59PM 47.5667 -65.8667 244° Southwest 170 196 4,900  Level Moncton Center
03:00PM 47.5500 -65.9333 250° West 150 173 6,100 1,080 Climbing Moncton Center
03:01PM 47.5333 -65.9833 244° Southwest 160 184 7,100 1,140 Climbing Moncton Center
03:02PM 47.5000 -66.0333 225° Southwest 150 173 8,400 1,140 Climbing Moncton Center
03:03PM 47.4833 -66.1000 250° West 150 173 9,400 1,020 Climbing Moncton Center
03:04PM 47.4667 -66.1500 244° Southwest 170 196 10,500 1,200 Climbing Moncton Center
03:05PM 47.3170 -66.5828 244° Southwest  Level FlightAware Approximate
03:05PM 47.4500 -66.2333 254° West 160 184 11,800  Level Moncton Center
03:06PM 47.4333 -66.2833 244° Southwest 170 196 12,800 1,020 Climbing Moncton Center
03:07PM 47.4000 -66.3500 234° Southwest 170 196 13,900 1,080 Climbing Moncton Center
03:08PM 47.3833 -66.4000 244° Southwest 170 196 15,000 1,080 Climbing Moncton Center
03:09PM 47.3667 -66.4667 250° West 170 196 16,100 960 Climbing Moncton Center
03:10PM 47.3500 -66.5167 244° Southwest 160 184 17,000 900 Climbing Moncton Center
03:11PM 47.3167 -66.6000 239° Southwest 170 196 17,900 720 Climbing Moncton Center
03:12PM 47.3000 -66.6500 244° Southwest 170 196 18,500 780 Climbing Moncton Center
03:13PM 47.2667 -66.7167 234° Southwest 180 207 19,500 900 Climbing Moncton Center
03:14PM 47.2500 -66.7667 244° Southwest 170 196 20,300 720 Climbing Moncton Center
03:15PM 47.2167 -66.8333 234° Southwest 170 196 21,000 660 Climbing Moncton Center
03:16PM 47.2000 -66.9167 254° West 170 196 21,700 480 Climbing Moncton Center
03:17PM 47.1833 -66.9667 244° Southwest 180 207 22,000 120 Climbing Moncton Center
03:18PM 47.1500 -67.0333 234° Southwest 200 230 22,000  Level Moncton Center
03:19PM 47.1333 -67.1333 256° West 220 253 22,000  Level Moncton Center
03:20PM 47.1114 -67.1886 240° Southwest 227 261 22,000  Level Boston Center
03:21PM 47.0797 -67.2708 241° Southwest 237 273 22,000  Level Boston Center
03:22PM 47.0558 -67.3433 244° Southwest 243 280 22,000  Level Boston Center
03:23PM 47.0164 -67.4442 240° Southwest 243 280 22,000  Level Boston Center
03:24PM 46.9867 -67.5292 243° Southwest 243 280 22,000  Level Boston Center
03:25PM 46.9528 -67.6142 240° Southwest 243 280 22,000  Level Boston Center
03:26PM 46.9208 -67.6992 241° Southwest 243 280 22,000  Level Boston Center
03:27PM 46.8889 -67.7869 242° Southwest 248 285 22,000  Level Boston Center
03:28PM 46.8569 -67.8744 242° Southwest 248 285 22,000  Level Boston Center
03:29PM 46.8158 -67.9961 244° Southwest 258 297 22,000  Level Boston Center
03:30PM 46.7792 -68.0781 237° Southwest 263 303 22,000  Level Boston Center
03:31PM 46.7536 -68.1708 248° West 250 288 22,000  Level Boston Center
03:32PM 46.7256 -68.2639 246° West 250 288 22,000  Level Boston Center
03:33PM 46.6997 -68.3567 248° West 245 282 22,000  Level Boston Center
03:34PM 46.6736 -68.4461 247° West 245 282 22,000  Level Boston Center
03:35PM 46.6453 -68.5358 245° Southwest 245 282 22,000  Level Boston Center
03:36PM 46.6194 -68.6314 249° West 245 282 22,000  Level Boston Center
03:37PM 46.5908 -68.7178 244° Southwest 245 282 22,000  Level Boston Center
03:38PM 46.5644 -68.8072 247° West 245 282 22,000  Level Boston Center
03:39PM 46.5383 -68.8994 248° West 245 282 22,000  Level Boston Center
03:40PM 46.5097 -68.9917 246° West 240 276 22,000  Level Boston Center
03:41PM 46.4831 -69.0778 246° West 240 276 22,000  Level Boston Center
03:42PM 46.4544 -69.1697 246° West 246 283 22,000  Level Boston Center
03:43PM 46.4256 -69.2558 244° Southwest 246 283 22,000  Level Boston Center
03:44PM 46.3989 -69.3475 247° West 241 277 22,000  Level Boston Center
03:45PM 46.3700 -69.4333 244° Southwest 241 277 22,000  Level Boston Center
03:46PM 46.3450 -69.5219 248° West 241 277 22,000  Level Boston Center
03:47PM 46.3142 -69.6136 244° Southwest 241 277 22,000  Level Boston Center
03:48PM 46.2892 -69.7019 248° West 241 277 22,000  Level Boston Center
03:49PM 46.2542 -69.8117 245° Southwest 241 277 22,000  Level Boston Center
03:50PM 46.2269 -69.9000 246° West 241 277 22,000  Level Boston Center
03:51PM 46.2056 -69.9728 247° West 241 277 22,000  Level Boston Center
03:52PM 46.1703 -70.0792 244° Southwest 241 277 22,000  Level Boston Center
03:53PM 46.1386 -70.1675 243° Southwest 241 277 22,000  Level Boston Center
03:54PM 46.1167 -70.1833 207° Southwest 250 288 22,000  Level Montreal Center
03:55PM 46.1000 -70.2667 254° West 250 288 22,000  Level Montreal Center
03:56PM 46.0667 -70.3667 244° Southwest 250 288 22,000  Level Montreal Center
03:56PM 46.0500 -70.4333 250° West 250 288 22,000  Level Moncton Center
03:57PM 46.0333 -70.4667 234° Southwest 250 288 22,000  Level Montreal Center
03:58PM 46.0167 -70.5500 254° West 250 288 22,000  Level Montreal Center
03:59PM 45.9833 -70.6333 240° Southwest 250 288 22,000  Level Montreal Center
04:00PM 45.9500 -70.7333 244° Southwest 250 288 22,000  Level Montreal Center
04:01PM 45.9167 -70.8333 244° Southwest 250 288 22,000  Level Montreal Center
04:02PM 45.9167 -70.9333 270° West 260 299 22,000  Level Montreal Center
04:03PM 45.9000 -71.0333 257° West 260 299 22,000  Level Montreal Center
04:04PM 45.8833 -71.1333 257° West 260 299 22,000  Level Montreal Center
04:05PM 45.8667 -71.2167 254° West 260 299 22,000  Level Montreal Center
04:06PM 45.8833 -71.3167 283° West 260 299 22,000  Level Montreal Center
04:07PM 45.8667 -71.4333 258° West 260 299 22,000  Level Montreal Center
04:08PM 45.8500 -71.5333 257° West 260 299 22,000  Level Montreal Center
04:09PM 45.8333 -71.6333 257° West 260 299 22,000  Level Montreal Center
04:10PM 45.8333 -71.7333 270° West 260 299 22,000  Level Montreal Center
04:11PM 45.8333 -71.8500 270° West 260 299 22,000  Level Montreal Center
04:12PM 45.8167 -71.9500 257° West 260 299 22,000 -300 Level Montreal Center
04:13PM 45.8000 -72.0500 257° West 260 299 21,400 -1,140 Descending Montreal Center
04:14PM 45.8000 -72.1667 270° West 280 322 19,800 -1,500 Descending Montreal Center
04:15PM 45.7833 -72.2833 258° West 290 334 18,400 -1,440 Descending Montreal Center
04:16PM 45.7667 -72.3833 257° West 290 334 17,000 -1,500 Descending Montreal Center
04:18PM 45.7333 -72.6333 259° West 280 322 14,000 -1,620 Descending Montreal Center
04:19PM 45.7500 -72.7333 283° West 280 322 12,200 -2,040 Descending Montreal Center
04:20PM 45.7333 -72.8167 254° West 270 311 10,000 -2,100 Descending Montreal Center
04:21PM 45.7167 -72.9500 260° West 270 311 8,100 -1,020 Descending Montreal Center
04:22PM 45.7000 -73.0333 254° West 240 276 8,000 -360 Descending Montreal Center
04:23PM 45.6833 -73.1333 257° West 240 276 7,400 -900 Descending Montreal Center
04:24PM 45.6667 -73.2333 257° West 260 299 6,200 -840 Descending Montreal Center
04:25PM 45.6667 -73.3333 270° West 240 276 5,800 -600 Descending Montreal Center
04:26PM 45.6500 -73.4333 257° West 250 288 5,000 -420 Descending Montreal Center
04:27PM 45.6333 -73.5000 250° West 220 253 5,000 -540 Level Montreal Center
04:28PM 45.6000 -73.5667 234° Southwest 190 219 4,000 -1,260 Descending Montreal Center
04:29PM 45.5667 -73.6167 226° Southwest 170 196 2,500 -1,200 Descending Montreal Center
04:30PM 45.5333 -73.6500 215° Southwest 170 196 1,600 -900 Descending Montreal Center
04:31PM 45.5000 -73.7000 226° Southwest 150 173 800 -840 Descending Montreal Center